sensor_id;sensor_type;location;lat;lon;timestamp;pressure;altitude;pressure_sealevel;temperature
75822;BMP180;64454;51.984;9.838;2023-08-06T00:02:09;99379.00;;;16.10
75822;BMP180;64454;51.984;9.838;2023-08-06T00:04:36;99383.00;;;16.00
75822;BMP180;64454;51.984;9.838;2023-08-06T00:07:05;99375.00;;;16.40
75822;BMP180;64454;51.984;9.838;2023-08-06T00:09:32;99368.00;;;16.70
75822;BMP180;64454;51.984;9.838;2023-08-06T00:11:59;99368.00;;;16.40
75822;BMP180;64454;51.984;9.838;2023-08-06T00:14:26;99360.00;;;16.60
75822;BMP180;64454;51.984;9.838;2023-08-06T00:16:52;99355.00;;;16.70
75822;BMP180;64454;51.984;9.838;2023-08-06T00:19:20;99355.00;;;16.60
75822;BMP180;64454;51.984;9.838;2023-08-06T00:21:47;99352.00;;;16.60
75822;BMP180;64454;51.984;9.838;2023-08-06T00:24:17;99354.00;;;16.60
75822;BMP180;64454;51.984;9.838;2023-08-06T00:26:45;99346.00;;;16.60
75822;BMP180;64454;51.984;9.838;2023-08-06T00:29:12;99335.00;;;16.60
75822;BMP180;64454;51.984;9.838;2023-08-06T00:31:40;99334.00;;;16.70
75822;BMP180;64454;51.984;9.838;2023-08-06T00:34:07;99332.00;;;16.80
75822;BMP180;64454;51.984;9.838;2023-08-06T00:36:34;99328.00;;;16.70
75822;BMP180;64454;51.984;9.838;2023-08-06T00:39:01;99324.00;;;16.70
75822;BMP180;64454;51.984;9.838;2023-08-06T00:41:30;99313.00;;;16.40
75822;BMP180;64454;51.984;9.838;2023-08-06T00:43:57;99323.00;;;16.60
75822;BMP180;64454;51.984;9.838;2023-08-06T00:46:24;99317.00;;;16.20
75822;BMP180;64454;51.984;9.838;2023-08-06T00:48:51;99314.00;;;16.00
75822;BMP180;64454;51.984;9.838;2023-08-06T00:51:19;99309.00;;;15.90
75822;BMP180;64454;51.984;9.838;2023-08-06T00:53:47;99304.00;;;15.90
75822;BMP180;64454;51.984;9.838;2023-08-06T00:56:15;99293.00;;;15.90
75822;BMP180;64454;51.984;9.838;2023-08-06T00:58:45;99289.00;;;15.90
75822;BMP180;64454;51.984;9.838;2023-08-06T01:01:13;99294.00;;;15.90
75822;BMP180;64454;51.984;9.838;2023-08-06T01:03:40;99282.00;;;15.90
75822;BMP180;64454;51.984;9.838;2023-08-06T01:06:07;99279.00;;;15.80
75822;BMP180;64454;51.984;9.838;2023-08-06T01:08:46;99278.00;;;16.00
75822;BMP180;64454;51.984;9.838;2023-08-06T01:11:27;99265.00;;;15.90
75822;BMP180;64454;51.984;9.838;2023-08-06T01:14:09;99276.00;;;15.80
75822;BMP180;64454;51.984;9.838;2023-08-06T01:16:42;99278.00;;;15.70
75822;BMP180;64454;51.984;9.838;2023-08-06T01:19:17;99279.00;;;15.90
75822;BMP180;64454;51.984;9.838;2023-08-06T01:21:47;99276.00;;;16.10
75822;BMP180;64454;51.984;9.838;2023-08-06T01:24:16;99271.00;;;15.90
75822;BMP180;64454;51.984;9.838;2023-08-06T01:27:04;99277.00;;;16.10
75822;BMP180;64454;51.984;9.838;2023-08-06T01:29:40;99267.00;;;16.00
75822;BMP180;64454;51.984;9.838;2023-08-06T01:32:10;99265.00;;;15.90
75822;BMP180;64454;51.984;9.838;2023-08-06T01:34:41;99266.00;;;15.70
75822;BMP180;64454;51.984;9.838;2023-08-06T01:37:12;99263.00;;;15.80
75822;BMP180;64454;51.984;9.838;2023-08-06T01:39:42;99257.00;;;16.00
75822;BMP180;64454;51.984;9.838;2023-08-06T01:42:09;99259.00;;;15.90
75822;BMP180;64454;51.984;9.838;2023-08-06T01:44:36;99256.00;;;15.80
75822;BMP180;64454;51.984;9.838;2023-08-06T01:47:04;99259.00;;;16.00
75822;BMP180;64454;51.984;9.838;2023-08-06T01:49:31;99252.00;;;16.10
75822;BMP180;64454;51.984;9.838;2023-08-06T01:51:58;99248.00;;;16.10
75822;BMP180;64454;51.984;9.838;2023-08-06T01:54:27;99253.00;;;15.80
75822;BMP180;64454;51.984;9.838;2023-08-06T01:56:54;99249.00;;;16.10
75822;BMP180;64454;51.984;9.838;2023-08-06T01:59:24;99244.00;;;15.80
75822;BMP180;64454;51.984;9.838;2023-08-06T02:01:50;99250.00;;;15.60
75822;BMP180;64454;51.984;9.838;2023-08-06T02:04:20;99247.00;;;15.50
75822;BMP180;64454;51.984;9.838;2023-08-06T02:06:47;99251.00;;;15.60
75822;BMP180;64454;51.984;9.838;2023-08-06T02:09:16;99242.00;;;15.90
75822;BMP180;64454;51.984;9.838;2023-08-06T02:11:46;99243.00;;;15.70
75822;BMP180;64454;51.984;9.838;2023-08-06T02:14:13;99250.00;;;15.60
75822;BMP180;64454;51.984;9.838;2023-08-06T02:16:41;99239.00;;;15.60
75822;BMP180;64454;51.984;9.838;2023-08-06T02:19:08;99232.00;;;15.80
75822;BMP180;64454;51.984;9.838;2023-08-06T02:21:35;99232.00;;;15.80
75822;BMP180;64454;51.984;9.838;2023-08-06T02:24:02;99233.00;;;15.80
75822;BMP180;64454;51.984;9.838;2023-08-06T02:26:30;99229.00;;;15.80
75822;BMP180;64454;51.984;9.838;2023-08-06T02:28:58;99231.00;;;16.10
75822;BMP180;64454;51.984;9.838;2023-08-06T02:31:25;99227.00;;;16.20
75822;BMP180;64454;51.984;9.838;2023-08-06T02:33:52;99239.00;;;16.00
75822;BMP180;64454;51.984;9.838;2023-08-06T02:36:19;99230.00;;;15.90
75822;BMP180;64454;51.984;9.838;2023-08-06T02:38:47;99231.00;;;15.80
75822;BMP180;64454;51.984;9.838;2023-08-06T02:41:13;99222.00;;;16.10
75822;BMP180;64454;51.984;9.838;2023-08-06T02:43:40;99223.00;;;15.90
75822;BMP180;64454;51.984;9.838;2023-08-06T02:46:09;99217.00;;;15.70
75822;BMP180;64454;51.984;9.838;2023-08-06T02:48:35;99219.00;;;15.50
75822;BMP180;64454;51.984;9.838;2023-08-06T02:51:02;99212.00;;;15.70
75822;BMP180;64454;51.984;9.838;2023-08-06T02:53:29;99213.00;;;15.60
75822;BMP180;64454;51.984;9.838;2023-08-06T02:55:57;99199.00;;;15.80
75822;BMP180;64454;51.984;9.838;2023-08-06T02:58:24;99195.00;;;15.50
75822;BMP180;64454;51.984;9.838;2023-08-06T03:01:02;99201.00;;;15.30
75822;BMP180;64454;51.984;9.838;2023-08-06T03:03:32;99198.00;;;15.20
75822;BMP180;64454;51.984;9.838;2023-08-06T03:06:00;99188.00;;;15.30
75822;BMP180;64454;51.984;9.838;2023-08-06T03:08:28;99177.00;;;15.70
75822;BMP180;64454;51.984;9.838;2023-08-06T03:10:54;99170.00;;;15.40
75822;BMP180;64454;51.984;9.838;2023-08-06T03:13:21;99174.00;;;15.20
75822;BMP180;64454;51.984;9.838;2023-08-06T03:15:53;99166.00;;;15.40
75822;BMP180;64454;51.984;9.838;2023-08-06T03:18:20;99165.00;;;15.50
75822;BMP180;64454;51.984;9.838;2023-08-06T03:20:49;99169.00;;;15.40
75822;BMP180;64454;51.984;9.838;2023-08-06T03:23:16;99166.00;;;15.30
75822;BMP180;64454;51.984;9.838;2023-08-06T03:25:43;99168.00;;;15.60
75822;BMP180;64454;51.984;9.838;2023-08-06T03:28:10;99158.00;;;15.30
75822;BMP180;64454;51.984;9.838;2023-08-06T03:30:38;99151.00;;;15.60
75822;BMP180;64454;51.984;9.838;2023-08-06T03:33:05;99154.00;;;15.40
75822;BMP180;64454;51.984;9.838;2023-08-06T03:35:32;99155.00;;;15.50
75822;BMP180;64454;51.984;9.838;2023-08-06T03:38:00;99155.00;;;15.40
75822;BMP180;64454;51.984;9.838;2023-08-06T03:40:27;99149.00;;;15.50
75822;BMP180;64454;51.984;9.838;2023-08-06T03:42:54;99149.00;;;15.70
75822;BMP180;64454;51.984;9.838;2023-08-06T03:45:21;99137.00;;;15.60
75822;BMP180;64454;51.984;9.838;2023-08-06T03:47:48;99133.00;;;15.70
75822;BMP180;64454;51.984;9.838;2023-08-06T03:50:15;99122.00;;;15.90
75822;BMP180;64454;51.984;9.838;2023-08-06T03:52:42;99126.00;;;15.90
75822;BMP180;64454;51.984;9.838;2023-08-06T03:55:10;99118.00;;;15.80
75822;BMP180;64454;51.984;9.838;2023-08-06T03:57:37;99119.00;;;15.80
75822;BMP180;64454;51.984;9.838;2023-08-06T04:00:05;99131.00;;;15.60
75822;BMP180;64454;51.984;9.838;2023-08-06T04:02:32;99137.00;;;15.60
75822;BMP180;64454;51.984;9.838;2023-08-06T04:05:01;99136.00;;;15.70
75822;BMP180;64454;51.984;9.838;2023-08-06T04:07:28;99136.00;;;15.60
75822;BMP180;64454;51.984;9.838;2023-08-06T04:09:57;99131.00;;;15.70
75822;BMP180;64454;51.984;9.838;2023-08-06T04:12:26;99137.00;;;15.70
75822;BMP180;64454;51.984;9.838;2023-08-06T04:14:54;99142.00;;;15.60
75822;BMP180;64454;51.984;9.838;2023-08-06T04:17:21;99151.00;;;15.40
75822;BMP180;64454;51.984;9.838;2023-08-06T04:19:51;99144.00;;;15.30
75822;BMP180;64454;51.984;9.838;2023-08-06T04:22:19;99145.00;;;15.20
75822;BMP180;64454;51.984;9.838;2023-08-06T04:24:46;99144.00;;;15.40
75822;BMP180;64454;51.984;9.838;2023-08-06T04:27:15;99135.00;;;15.40
75822;BMP180;64454;51.984;9.838;2023-08-06T04:29:43;99140.00;;;15.30
75822;BMP180;64454;51.984;9.838;2023-08-06T04:32:12;99137.00;;;15.00
75822;BMP180;64454;51.984;9.838;2023-08-06T04:34:39;99140.00;;;15.20
75822;BMP180;64454;51.984;9.838;2023-08-06T04:37:06;99136.00;;;15.30
75822;BMP180;64454;51.984;9.838;2023-08-06T04:39:32;99142.00;;;15.30
75822;BMP180;64454;51.984;9.838;2023-08-06T04:41:59;99146.00;;;15.20
75822;BMP180;64454;51.984;9.838;2023-08-06T04:44:26;99152.00;;;15.00
75822;BMP180;64454;51.984;9.838;2023-08-06T04:46:54;99144.00;;;15.20
75822;BMP180;64454;51.984;9.838;2023-08-06T04:49:21;99156.00;;;15.30
75822;BMP180;64454;51.984;9.838;2023-08-06T04:51:48;99153.00;;;15.40
75822;BMP180;64454;51.984;9.838;2023-08-06T04:54:17;99146.00;;;15.60
75822;BMP180;64454;51.984;9.838;2023-08-06T04:56:45;99139.00;;;15.50
75822;BMP180;64454;51.984;9.838;2023-08-06T04:59:12;99140.00;;;15.10
75822;BMP180;64454;51.984;9.838;2023-08-06T05:01:39;99145.00;;;15.10
75822;BMP180;64454;51.984;9.838;2023-08-06T05:04:08;99140.00;;;15.20
75822;BMP180;64454;51.984;9.838;2023-08-06T05:06:35;99138.00;;;15.20
75822;BMP180;64454;51.984;9.838;2023-08-06T05:09:04;99134.00;;;15.40
75822;BMP180;64454;51.984;9.838;2023-08-06T05:11:31;99137.00;;;15.20
75822;BMP180;64454;51.984;9.838;2023-08-06T05:13:58;99139.00;;;15.10
75822;BMP180;64454;51.984;9.838;2023-08-06T05:16:25;99147.00;;;15.30
75822;BMP180;64454;51.984;9.838;2023-08-06T05:18:52;99146.00;;;15.10
75822;BMP180;64454;51.984;9.838;2023-08-06T05:21:20;99146.00;;;15.10
75822;BMP180;64454;51.984;9.838;2023-08-06T05:23:47;99144.00;;;15.30
75822;BMP180;64454;51.984;9.838;2023-08-06T05:26:14;99140.00;;;15.20
75822;BMP180;64454;51.984;9.838;2023-08-06T05:28:44;99143.00;;;15.50
75822;BMP180;64454;51.984;9.838;2023-08-06T05:31:11;99149.00;;;15.60
75822;BMP180;64454;51.984;9.838;2023-08-06T05:33:38;99154.00;;;15.70
75822;BMP180;64454;51.984;9.838;2023-08-06T05:36:05;99140.00;;;15.70
75822;BMP180;64454;51.984;9.838;2023-08-06T05:38:33;99143.00;;;15.80
75822;BMP180;64454;51.984;9.838;2023-08-06T05:41:00;99145.00;;;16.10
75822;BMP180;64454;51.984;9.838;2023-08-06T05:43:27;99139.00;;;16.00
75822;BMP180;64454;51.984;9.838;2023-08-06T05:45:56;99135.00;;;16.20
75822;BMP180;64454;51.984;9.838;2023-08-06T05:48:23;99130.00;;;16.50
75822;BMP180;64454;51.984;9.838;2023-08-06T05:50:52;99133.00;;;16.60
75822;BMP180;64454;51.984;9.838;2023-08-06T05:53:18;99123.00;;;16.50
75822;BMP180;64454;51.984;9.838;2023-08-06T05:55:47;99128.00;;;16.80
75822;BMP180;64454;51.984;9.838;2023-08-06T05:58:14;99123.00;;;17.00
75822;BMP180;64454;51.984;9.838;2023-08-06T06:00:41;99128.00;;;16.80
75822;BMP180;64454;51.984;9.838;2023-08-06T06:03:08;99120.00;;;17.00
75822;BMP180;64454;51.984;9.838;2023-08-06T06:05:37;99112.00;;;17.20
75822;BMP180;64454;51.984;9.838;2023-08-06T06:08:05;99115.00;;;17.00
75822;BMP180;64454;51.984;9.838;2023-08-06T06:10:32;99109.00;;;17.20
75822;BMP180;64454;51.984;9.838;2023-08-06T06:13:00;99114.00;;;17.30
75822;BMP180;64454;51.984;9.838;2023-08-06T06:15:27;99117.00;;;17.20
75822;BMP180;64454;51.984;9.838;2023-08-06T06:17:54;99122.00;;;17.40
75822;BMP180;64454;51.984;9.838;2023-08-06T06:20:22;99110.00;;;17.30
75822;BMP180;64454;51.984;9.838;2023-08-06T06:22:49;99108.00;;;17.40
75822;BMP180;64454;51.984;9.838;2023-08-06T06:25:16;99114.00;;;17.30
75822;BMP180;64454;51.984;9.838;2023-08-06T06:27:43;99107.00;;;17.00
75822;BMP180;64454;51.984;9.838;2023-08-06T06:30:11;99110.00;;;16.90
75822;BMP180;64454;51.984;9.838;2023-08-06T06:32:38;99112.00;;;16.60
75822;BMP180;64454;51.984;9.838;2023-08-06T06:35:07;99110.00;;;16.70
75822;BMP180;64454;51.984;9.838;2023-08-06T06:37:34;99109.00;;;16.80
75822;BMP180;64454;51.984;9.838;2023-08-06T06:40:01;99104.00;;;17.10
75822;BMP180;64454;51.984;9.838;2023-08-06T06:42:29;99109.00;;;17.30
75822;BMP180;64454;51.984;9.838;2023-08-06T06:44:56;99103.00;;;17.70
75822;BMP180;64454;51.984;9.838;2023-08-06T06:47:24;99102.00;;;17.30
75822;BMP180;64454;51.984;9.838;2023-08-06T06:49:51;99096.00;;;17.10
75822;BMP180;64454;51.984;9.838;2023-08-06T06:52:18;99100.00;;;17.40
75822;BMP180;64454;51.984;9.838;2023-08-06T06:54:45;99100.00;;;17.70
75822;BMP180;64454;51.984;9.838;2023-08-06T06:57:12;99091.00;;;17.50
75822;BMP180;64454;51.984;9.838;2023-08-06T06:59:39;99088.00;;;17.80
75822;BMP180;64454;51.984;9.838;2023-08-06T07:02:06;99087.00;;;18.20
75822;BMP180;64454;51.984;9.838;2023-08-06T07:04:34;99082.00;;;17.90
75822;BMP180;64454;51.984;9.838;2023-08-06T07:07:01;99084.00;;;18.10
75822;BMP180;64454;51.984;9.838;2023-08-06T07:09:28;99085.00;;;18.10
75822;BMP180;64454;51.984;9.838;2023-08-06T07:11:55;99089.00;;;18.50
75822;BMP180;64454;51.984;9.838;2023-08-06T07:14:22;99091.00;;;18.40
75822;BMP180;64454;51.984;9.838;2023-08-06T07:16:49;99089.00;;;18.60
75822;BMP180;64454;51.984;9.838;2023-08-06T07:19:19;99082.00;;;18.40
75822;BMP180;64454;51.984;9.838;2023-08-06T07:21:47;99076.00;;;18.50
75822;BMP180;64454;51.984;9.838;2023-08-06T07:24:17;99071.00;;;18.70
75822;BMP180;64454;51.984;9.838;2023-08-06T07:26:45;99071.00;;;19.00
75822;BMP180;64454;51.984;9.838;2023-08-06T07:29:12;99075.00;;;18.90
75822;BMP180;64454;51.984;9.838;2023-08-06T07:31:40;99071.00;;;19.10
75822;BMP180;64454;51.984;9.838;2023-08-06T07:34:07;99064.00;;;19.50
75822;BMP180;64454;51.984;9.838;2023-08-06T07:36:34;99068.00;;;19.00
75822;BMP180;64454;51.984;9.838;2023-08-06T07:39:02;99065.00;;;19.50
75822;BMP180;64454;51.984;9.838;2023-08-06T07:41:31;99064.00;;;19.60
75822;BMP180;64454;51.984;9.838;2023-08-06T07:43:58;99075.00;;;19.90
75822;BMP180;64454;51.984;9.838;2023-08-06T07:46:25;99067.00;;;20.00
75822;BMP180;64454;51.984;9.838;2023-08-06T07:48:52;99070.00;;;19.50
75822;BMP180;64454;51.984;9.838;2023-08-06T07:51:19;99074.00;;;19.20
75822;BMP180;64454;51.984;9.838;2023-08-06T07:53:46;99072.00;;;18.90
75822;BMP180;64454;51.984;9.838;2023-08-06T07:56:14;99058.00;;;19.20
75822;BMP180;64454;51.984;9.838;2023-08-06T07:58:41;99066.00;;;19.60
75822;BMP180;64454;51.984;9.838;2023-08-06T08:01:08;99070.00;;;19.60
75822;BMP180;64454;51.984;9.838;2023-08-06T08:03:35;99070.00;;;20.00
75822;BMP180;64454;51.984;9.838;2023-08-06T08:06:02;99054.00;;;19.90
75822;BMP180;64454;51.984;9.838;2023-08-06T08:08:29;99060.00;;;19.80
75822;BMP180;64454;51.984;9.838;2023-08-06T08:10:56;99053.00;;;20.10
75822;BMP180;64454;51.984;9.838;2023-08-06T08:13:26;99051.00;;;21.10
75822;BMP180;64454;51.984;9.838;2023-08-06T08:15:57;99054.00;;;21.50
75822;BMP180;64454;51.984;9.838;2023-08-06T08:18:25;99047.00;;;21.70
75822;BMP180;64454;51.984;9.838;2023-08-06T08:20:51;99059.00;;;21.50
75822;BMP180;64454;51.984;9.838;2023-08-06T08:23:18;99059.00;;;20.50
75822;BMP180;64454;51.984;9.838;2023-08-06T08:25:45;99053.00;;;20.90
75822;BMP180;64454;51.984;9.838;2023-08-06T08:28:12;99048.00;;;21.30
75822;BMP180;64454;51.984;9.838;2023-08-06T08:30:42;99040.00;;;22.00
75822;BMP180;64454;51.984;9.838;2023-08-06T08:33:08;99058.00;;;21.90
75822;BMP180;64454;51.984;9.838;2023-08-06T08:35:36;99043.00;;;22.60
75822;BMP180;64454;51.984;9.838;2023-08-06T08:38:03;99039.00;;;23.10
75822;BMP180;64454;51.984;9.838;2023-08-06T08:40:32;99038.00;;;23.40
75822;BMP180;64454;51.984;9.838;2023-08-06T08:43:00;99024.00;;;23.50
75822;BMP180;64454;51.984;9.838;2023-08-06T08:45:29;99026.00;;;23.70
75822;BMP180;64454;51.984;9.838;2023-08-06T08:47:57;99043.00;;;23.60
75822;BMP180;64454;51.984;9.838;2023-08-06T08:50:24;99049.00;;;23.60
75822;BMP180;64454;51.984;9.838;2023-08-06T08:52:52;99043.00;;;22.80
75822;BMP180;64454;51.984;9.838;2023-08-06T08:55:21;99055.00;;;22.30
75822;BMP180;64454;51.984;9.838;2023-08-06T08:57:49;99048.00;;;22.30
75822;BMP180;64454;51.984;9.838;2023-08-06T09:00:16;99048.00;;;22.50
75822;BMP180;64454;51.984;9.838;2023-08-06T09:02:45;99044.00;;;22.10
75822;BMP180;64454;51.984;9.838;2023-08-06T09:05:16;99044.00;;;21.00
75822;BMP180;64454;51.984;9.838;2023-08-06T09:07:48;99038.00;;;21.50
75822;BMP180;64454;51.984;9.838;2023-08-06T09:10:17;99033.00;;;22.10
75822;BMP180;64454;51.984;9.838;2023-08-06T09:12:45;99034.00;;;22.80
75822;BMP180;64454;51.984;9.838;2023-08-06T09:15:13;99034.00;;;22.80
75822;BMP180;64454;51.984;9.838;2023-08-06T09:17:40;99025.00;;;22.40
75822;BMP180;64454;51.984;9.838;2023-08-06T09:20:12;99008.00;;;24.20
75822;BMP180;64454;51.984;9.838;2023-08-06T09:22:41;99006.00;;;25.00
75822;BMP180;64454;51.984;9.838;2023-08-06T09:25:10;99015.00;;;25.30
75822;BMP180;64454;51.984;9.838;2023-08-06T09:27:39;99027.00;;;24.90
75822;BMP180;64454;51.984;9.838;2023-08-06T09:30:07;99029.00;;;24.10
75822;BMP180;64454;51.984;9.838;2023-08-06T09:32:45;99026.00;;;23.70
75822;BMP180;64454;51.984;9.838;2023-08-06T09:35:15;99022.00;;;23.30
75822;BMP180;64454;51.984;9.838;2023-08-06T09:37:44;99024.00;;;22.90
75822;BMP180;64454;51.984;9.838;2023-08-06T09:40:30;99014.00;;;23.00
75822;BMP180;64454;51.984;9.838;2023-08-06T09:42:58;98997.00;;;24.30
75822;BMP180;64454;51.984;9.838;2023-08-06T09:45:32;99015.00;;;24.30
75822;BMP180;64454;51.984;9.838;2023-08-06T09:48:00;99030.00;;;23.70
75822;BMP180;64454;51.984;9.838;2023-08-06T09:50:30;99025.00;;;23.20
75822;BMP180;64454;51.984;9.838;2023-08-06T09:52:59;99025.00;;;23.50
75822;BMP180;64454;51.984;9.838;2023-08-06T09:55:27;99028.00;;;22.80
75822;BMP180;64454;51.984;9.838;2023-08-06T09:57:55;99022.00;;;23.70
75822;BMP180;64454;51.984;9.838;2023-08-06T10:00:23;99013.00;;;23.40
75822;BMP180;64454;51.984;9.838;2023-08-06T10:02:50;99021.00;;;23.00
75822;BMP180;64454;51.984;9.838;2023-08-06T10:05:21;99014.00;;;22.60
75822;BMP180;64454;51.984;9.838;2023-08-06T10:07:49;99015.00;;;22.50
75822;BMP180;64454;51.984;9.838;2023-08-06T10:10:19;99023.00;;;22.40
75822;BMP180;64454;51.984;9.838;2023-08-06T10:12:50;99017.00;;;21.90
75822;BMP180;64454;51.984;9.838;2023-08-06T10:15:24;99017.00;;;21.60
75822;BMP180;64454;51.984;9.838;2023-08-06T10:17:56;99006.00;;;21.40
75822;BMP180;64454;51.984;9.838;2023-08-06T10:20:24;99002.00;;;22.20
75822;BMP180;64454;51.984;9.838;2023-08-06T10:23:08;99000.00;;;22.60
75822;BMP180;64454;51.984;9.838;2023-08-06T10:25:41;99002.00;;;23.00
75822;BMP180;64454;51.984;9.838;2023-08-06T10:28:09;98991.00;;;23.10
75822;BMP180;64454;51.984;9.838;2023-08-06T10:30:42;98964.00;;;25.10
75822;BMP180;64454;51.984;9.838;2023-08-06T10:33:10;98963.00;;;25.00
75822;BMP180;64454;51.984;9.838;2023-08-06T10:35:40;98942.00;;;26.00
75822;BMP180;64454;51.984;9.838;2023-08-06T10:38:11;98954.00;;;26.50
75822;BMP180;64454;51.984;9.838;2023-08-06T10:40:42;98956.00;;;27.80
75822;BMP180;64454;51.984;9.838;2023-08-06T10:43:27;98961.00;;;28.40
75822;BMP180;64454;51.984;9.838;2023-08-06T10:45:55;98962.00;;;28.70
75822;BMP180;64454;51.984;9.838;2023-08-06T10:48:35;98978.00;;;28.90
75822;BMP180;64454;51.984;9.838;2023-08-06T10:51:08;98975.00;;;28.00
75822;BMP180;64454;51.984;9.838;2023-08-06T10:53:35;98977.00;;;27.00
75822;BMP180;64454;51.984;9.838;2023-08-06T10:56:12;98953.00;;;27.00
75822;BMP180;64454;51.984;9.838;2023-08-06T10:58:40;98958.00;;;27.40
75822;BMP180;64454;51.984;9.838;2023-08-06T11:01:07;98947.00;;;27.50
75822;BMP180;64454;51.984;9.838;2023-08-06T11:03:35;98944.00;;;28.70
75822;BMP180;64454;51.984;9.838;2023-08-06T11:06:03;98971.00;;;28.10
75822;BMP180;64454;51.984;9.838;2023-08-06T11:08:36;98969.00;;;26.80
75822;BMP180;64454;51.984;9.838;2023-08-06T11:11:12;98972.00;;;25.50
75822;BMP180;64454;51.984;9.838;2023-08-06T11:13:40;98965.00;;;25.30
75822;BMP180;64454;51.984;9.838;2023-08-06T11:16:07;98969.00;;;24.30
75822;BMP180;64454;51.984;9.838;2023-08-06T11:18:34;98973.00;;;23.70
75822;BMP180;64454;51.984;9.838;2023-08-06T11:21:02;98968.00;;;23.70
75822;BMP180;64454;51.984;9.838;2023-08-06T11:23:29;98970.00;;;23.30
75822;BMP180;64454;51.984;9.838;2023-08-06T11:25:57;98962.00;;;23.70
75822;BMP180;64454;51.984;9.838;2023-08-06T11:28:25;98965.00;;;23.50
75822;BMP180;64454;51.984;9.838;2023-08-06T11:30:53;98956.00;;;24.30
75822;BMP180;64454;51.984;9.838;2023-08-06T11:33:21;98954.00;;;24.60
75822;BMP180;64454;51.984;9.838;2023-08-06T11:35:48;98937.00;;;25.00
75822;BMP180;64454;51.984;9.838;2023-08-06T11:38:15;98934.00;;;26.60
75822;BMP180;64454;51.984;9.838;2023-08-06T11:40:44;98930.00;;;27.60
75822;BMP180;64454;51.984;9.838;2023-08-06T11:43:12;98943.00;;;26.90
75822;BMP180;64454;51.984;9.838;2023-08-06T11:45:40;98919.00;;;26.10
75822;BMP180;64454;51.984;9.838;2023-08-06T11:48:07;98918.00;;;27.30
75822;BMP180;64454;51.984;9.838;2023-08-06T11:50:37;98920.00;;;28.30
75822;BMP180;64454;51.984;9.838;2023-08-06T11:53:05;98916.00;;;27.50
75822;BMP180;64454;51.984;9.838;2023-08-06T11:55:32;98940.00;;;27.40
75822;BMP180;64454;51.984;9.838;2023-08-06T11:58:03;98923.00;;;27.00
75822;BMP180;64454;51.984;9.838;2023-08-06T12:00:31;98931.00;;;27.10
75822;BMP180;64454;51.984;9.838;2023-08-06T12:02:59;98936.00;;;26.90
75822;BMP180;64454;51.984;9.838;2023-08-06T12:05:30;98941.00;;;26.80
75822;BMP180;64454;51.984;9.838;2023-08-06T12:08:00;98946.00;;;25.80
75822;BMP180;64454;51.984;9.838;2023-08-06T12:10:30;98946.00;;;25.10
75822;BMP180;64454;51.984;9.838;2023-08-06T12:12:57;98936.00;;;24.90
75822;BMP180;64454;51.984;9.838;2023-08-06T12:15:24;98926.00;;;24.90
75822;BMP180;64454;51.984;9.838;2023-08-06T12:17:51;98931.00;;;24.60
75822;BMP180;64454;51.984;9.838;2023-08-06T12:20:19;98928.00;;;24.70
75822;BMP180;64454;51.984;9.838;2023-08-06T12:22:46;98924.00;;;24.30
75822;BMP180;64454;51.984;9.838;2023-08-06T12:25:13;98925.00;;;24.00
75822;BMP180;64454;51.984;9.838;2023-08-06T12:27:42;98926.00;;;24.00
75822;BMP180;64454;51.984;9.838;2023-08-06T12:30:11;98918.00;;;23.90
75822;BMP180;64454;51.984;9.838;2023-08-06T12:32:39;98923.00;;;23.80
75822;BMP180;64454;51.984;9.838;2023-08-06T12:35:07;98917.00;;;23.60
75822;BMP180;64454;51.984;9.838;2023-08-06T12:37:36;98930.00;;;24.00
75822;BMP180;64454;51.984;9.838;2023-08-06T12:40:06;98929.00;;;23.50
75822;BMP180;64454;51.984;9.838;2023-08-06T12:42:33;98929.00;;;24.00
75822;BMP180;64454;51.984;9.838;2023-08-06T12:44:59;98932.00;;;23.90
75822;BMP180;64454;51.984;9.838;2023-08-06T12:47:26;98927.00;;;23.40
75822;BMP180;64454;51.984;9.838;2023-08-06T12:49:53;98921.00;;;23.50
75822;BMP180;64454;51.984;9.838;2023-08-06T12:52:20;98924.00;;;23.40
75822;BMP180;64454;51.984;9.838;2023-08-06T12:54:48;98927.00;;;23.20
75822;BMP180;64454;51.984;9.838;2023-08-06T12:57:15;98926.00;;;23.10
75822;BMP180;64454;51.984;9.838;2023-08-06T12:59:43;98925.00;;;23.20
75822;BMP180;64454;51.984;9.838;2023-08-06T13:02:09;98927.00;;;23.00
75822;BMP180;64454;51.984;9.838;2023-08-06T13:04:36;98928.00;;;23.00
75822;BMP180;64454;51.984;9.838;2023-08-06T13:07:03;98930.00;;;23.10
75822;BMP180;64454;51.984;9.838;2023-08-06T13:09:32;98930.00;;;22.70
75822;BMP180;64454;51.984;9.838;2023-08-06T13:12:00;98927.00;;;23.00
75822;BMP180;64454;51.984;9.838;2023-08-06T13:14:31;98915.00;;;23.00
75822;BMP180;64454;51.984;9.838;2023-08-06T13:16:58;98914.00;;;22.70
75822;BMP180;64454;51.984;9.838;2023-08-06T13:19:25;98920.00;;;22.80
75822;BMP180;64454;51.984;9.838;2023-08-06T13:22:01;98921.00;;;22.60
75822;BMP180;64454;51.984;9.838;2023-08-06T13:24:29;98923.00;;;23.10
75822;BMP180;64454;51.984;9.838;2023-08-06T13:26:57;98918.00;;;22.90
75822;BMP180;64454;51.984;9.838;2023-08-06T13:29:25;98915.00;;;23.50
75822;BMP180;64454;51.984;9.838;2023-08-06T13:31:53;98912.00;;;22.80
75822;BMP180;64454;51.984;9.838;2023-08-06T13:34:20;98908.00;;;22.60
75822;BMP180;64454;51.984;9.838;2023-08-06T13:36:47;98905.00;;;23.30
75822;BMP180;64454;51.984;9.838;2023-08-06T13:39:17;98911.00;;;23.20
75822;BMP180;64454;51.984;9.838;2023-08-06T13:41:45;98915.00;;;23.30
75822;BMP180;64454;51.984;9.838;2023-08-06T13:44:12;98913.00;;;22.90
75822;BMP180;64454;51.984;9.838;2023-08-06T13:46:42;98920.00;;;22.90
75822;BMP180;64454;51.984;9.838;2023-08-06T13:49:10;98922.00;;;23.20
75822;BMP180;64454;51.984;9.838;2023-08-06T13:51:37;98925.00;;;23.80
75822;BMP180;64454;51.984;9.838;2023-08-06T13:54:04;98915.00;;;23.90
75822;BMP180;64454;51.984;9.838;2023-08-06T13:56:33;98914.00;;;23.80
75822;BMP180;64454;51.984;9.838;2023-08-06T13:59:00;98915.00;;;23.80
75822;BMP180;64454;51.984;9.838;2023-08-06T14:01:27;98909.00;;;23.90
75822;BMP180;64454;51.984;9.838;2023-08-06T14:03:55;98904.00;;;24.30
75822;BMP180;64454;51.984;9.838;2023-08-06T14:06:22;98897.00;;;25.10
75822;BMP180;64454;51.984;9.838;2023-08-06T14:08:49;98897.00;;;25.70
75822;BMP180;64454;51.984;9.838;2023-08-06T14:11:16;98907.00;;;26.10
75822;BMP180;64454;51.984;9.838;2023-08-06T14:13:43;98905.00;;;25.60
75822;BMP180;64454;51.984;9.838;2023-08-06T14:16:09;98900.00;;;26.00